Time;durP1;ratioP1;P1;durP2;ratioP2;P2;SDS_P1;SDS_P2;PMS_P1;PMS_P2;Temp;Humidity;BMP_temperature;BMP_pressure;BME280_temperature;BME280_humidity;BME280_pressure;Samples;Min_cycle;Max_cycle;Signal;HPM_P1;HPM_P2
2022/08/04 00:01:33;;;;;;;9.60;4.10;;;22.90;52.20;;;22.37;47.98;97815.97;5075013;28;20555;-75
2022/08/04 00:04:04;;;;;;;5.80;3.67;;;22.90;52.40;;;22.28;48.08;97810.31;5066456;28;20588;-76
2022/08/04 00:06:46;;;;;;;4.43;4.00;;;22.80;52.30;;;22.29;47.88;97817.44;5095876;27;21031;-75
2022/08/04 00:09:23;;;;;;;4.10;3.70;;;22.80;52.50;;;22.23;48.60;97818.66;5078833;28;20455;-76
2022/08/04 00:11:53;;;;;;;4.90;4.30;;;22.80;52.60;;;22.15;48.83;97816.56;5068312;28;20464;-74
2022/08/04 00:14:24;;;;;;;4.60;3.90;;;22.70;52.80;;;22.03;48.94;97823.31;5063197;28;20537;-75
2022/08/04 00:16:54;;;;;;;4.70;4.20;;;22.60;52.80;;;21.92;49.66;97825.38;5070458;28;20534;-73
2022/08/04 00:19:32;;;;;;;4.33;3.77;;;22.50;53.00;;;21.78;49.98;97828.03;5073759;28;20466;-75
2022/08/04 00:22:04;;;;;;;4.37;3.97;;;22.40;53.40;;;21.72;50.03;97829.19;5065522;28;20450;-74
2022/08/04 00:24:32;;;;;;;4.70;3.67;;;22.30;53.50;;;21.67;50.07;97826.53;5069042;28;20934;-75
2022/08/04 00:27:00;;;;;;;6.77;3.93;;;22.20;53.60;;;21.66;50.45;97822.13;5063028;28;20460;-75
2022/08/04 00:29:29;;;;;;;4.20;3.90;;;22.20;53.70;;;21.66;50.37;97824.88;5069678;28;20470;-76
2022/08/04 00:31:57;;;;;;;4.73;3.77;;;22.20;54.00;;;21.60;50.62;97815.84;5071217;28;20474;-76
2022/08/04 00:34:27;;;;;;;3.70;3.40;;;22.10;53.90;;;21.56;50.63;97817.56;5067451;28;20501;-75
2022/08/04 00:36:56;;;;;;;4.10;3.80;;;22.10;54.00;;;21.63;50.41;97825.44;5062512;28;20460;-77
2022/08/04 00:39:25;;;;;;;8.73;3.60;;;22.10;53.90;;;21.56;50.84;97824.97;5062631;28;20476;-76
2022/08/04 00:42:19;;;;;;;4.43;3.40;;;22.10;54.00;;;21.56;50.88;97820.28;5066954;28;20528;-76
2022/08/04 00:45:09;;;;;;;4.83;3.60;;;22.10;54.10;;;21.61;51.08;97827.63;5068780;28;20493;-77
2022/08/04 00:47:54;;;;;;;5.00;3.77;;;22.10;54.30;;;21.73;50.48;97828.09;5081393;28;20452;-76
2022/08/04 00:50:31;;;;;;;3.83;3.43;;;22.20;54.10;;;21.77;50.29;97820.06;5086400;28;20454;-74
2022/08/04 00:53:08;;;;;;;4.20;3.90;;;22.30;53.90;;;21.79;50.13;97829.69;5073926;28;20461;-75
2022/08/04 00:56:02;;;;;;;5.47;3.60;;;22.30;53.90;;;21.75;50.08;97825.06;5063086;28;20472;-76
2022/08/04 00:58:43;;;;;;;4.03;3.33;;;22.30;54.00;;;21.83;50.16;97829.06;5076599;28;20468;-76
2022/08/04 01:01:38;;;;;;;3.90;3.60;;;22.30;54.00;;;21.85;50.12;97832.34;5065400;28;20570;-75
2022/08/04 01:04:17;;;;;;;4.70;3.70;;;22.40;54.10;;;21.90;50.38;97833.09;5063290;28;20473;-75
2022/08/04 01:06:59;;;;;;;4.00;3.70;;;22.40;54.20;;;21.84;49.93;97831.53;5063314;28;20929;-76
2022/08/04 01:09:41;;;;;;;3.83;3.53;;;22.40;53.90;;;21.74;50.28;97826.16;5065159;28;20457;-76
2022/08/04 01:12:34;;;;;;;4.20;3.83;;;22.30;53.90;;;21.71;50.07;97827.56;5079517;28;21011;-76
2022/08/04 01:15:06;;;;;;;4.50;4.20;;;22.30;54.10;;;21.49;50.74;97830.81;5064158;28;20491;-76
2022/08/04 01:17:50;;;;;;;4.67;3.87;;;22.20;54.20;;;21.20;51.54;97837.97;5060129;28;20459;-76
2022/08/04 01:20:24;;;;;;;3.97;3.67;;;21.90;54.30;;;21.21;51.59;97834.13;5067383;28;20465;-74
2022/08/04 01:23:27;;;;;;;3.90;3.43;;;21.90;54.70;;;21.20;51.96;97835.22;5062306;28;20467;-75
2022/08/04 01:26:30;;;;;;;4.30;3.90;;;21.80;54.70;;;21.09;52.51;97833.69;5062111;28;20464;-74
2022/08/04 01:29:08;;;;;;;4.07;3.73;;;21.80;55.10;;;21.02;52.64;97833.22;5051478;28;20455;-76
2022/08/04 01:31:48;;;;;;;4.83;4.33;;;21.60;55.20;;;20.89;53.21;97830.03;5079041;28;21635;-76
2022/08/04 01:34:19;;;;;;;5.67;3.90;;;21.50;55.80;;;20.85;53.20;97825.41;5064165;28;20462;-76
2022/08/04 01:36:56;;;;;;;4.17;3.77;;;21.50;55.60;;;20.76;53.58;97833.41;5063292;28;20838;-74
2022/08/04 01:39:41;;;;;;;5.70;4.03;;;21.40;55.80;;;20.71;53.72;97827.97;5059721;28;20462;-76
2022/08/04 01:42:10;;;;;;;4.20;3.80;;;21.30;55.90;;;20.61;53.63;97829.66;5076252;28;20991;-76
2022/08/04 01:44:41;;;;;;;4.50;3.63;;;21.20;55.90;;;20.49;53.79;97819.06;5064612;28;20472;-74
2022/08/04 01:47:10;;;;;;;4.43;4.10;;;21.20;55.90;;;20.55;53.69;97828.06;5063689;28;21021;-76
2022/08/04 01:49:39;;;;;;;4.27;3.73;;;21.10;55.90;;;20.47;53.66;97829.50;5066763;28;20536;-75
2022/08/04 01:52:10;;;;;;;5.67;3.57;;;21.10;55.90;;;20.14;54.33;97781.72;5099775;28;20456;-75
2022/08/04 01:54:41;;;;;;;4.87;4.17;;;21.10;56.50;;;20.44;54.01;97826.50;5096763;28;20467;-75
2022/08/04 01:57:11;;;;;;;5.80;4.40;;;21.20;56.30;;;20.57;54.01;97834.09;5065220;28;20459;-75
2022/08/04 01:59:40;;;;;;;5.70;3.93;;;21.20;56.30;;;20.49;53.54;97838.28;5079061;28;20963;-73
2022/08/04 02:02:07;;;;;;;5.20;4.17;;;21.20;56.20;;;20.57;53.58;97833.25;5061225;28;20463;-74
2022/08/04 02:04:36;;;;;;;4.70;4.17;;;21.20;56.10;;;20.67;53.55;97835.94;5064362;28;20452;-74
2022/08/04 02:07:17;;;;;;;4.70;4.30;;;21.20;56.20;;;20.40;53.87;97785.09;5058985;28;20464;-75
2022/08/04 02:10:00;;;;;;;4.13;3.83;;;21.20;56.30;;;20.84;53.62;97835.53;5065252;28;20449;-75
2022/08/04 02:12:43;;;;;;;4.40;4.00;;;21.30;56.50;;;20.82;53.35;97829.53;5060411;28;20462;-75
2022/08/04 02:15:23;;;;;;;4.40;4.00;;;21.40;56.20;;;20.71;53.27;97825.22;5064377;28;20471;-75
2022/08/04 02:18:02;;;;;;;3.93;3.50;;;21.40;56.30;;;20.54;53.44;97804.47;5064369;28;20453;-76
2022/08/04 02:20:34;;;;;;;4.17;3.53;;;21.30;56.30;;;20.54;53.50;97831.91;5067035;28;20458;-75
2022/08/04 02:23:05;;;;;;;6.63;4.60;;;21.20;56.20;;;20.31;53.91;97792.28;5098392;28;20510;-75
2022/08/04 02:25:38;;;;;;;4.40;4.10;;;21.10;56.50;;;20.52;54.04;97825.88;5095971;28;20460;-75
2022/08/04 02:28:30;;;;;;;5.30;4.77;;;21.10;56.70;;;20.50;54.10;97833.59;5066296;28;20542;-76
2022/08/04 02:31:11;;;;;;;4.03;3.63;;;21.10;56.60;;;20.68;54.01;97821.13;5067607;28;20451;-74
2022/08/04 02:33:43;;;;;;;4.03;3.73;;;21.20;56.80;;;20.80;53.88;97827.09;5066526;28;21116;-73
2022/08/04 02:36:21;;;;;;;5.03;4.20;;;21.30;56.70;;;20.71;53.71;97816.97;5064412;28;20481;-76
2022/08/04 02:38:56;;;;;;;4.37;3.90;;;21.40;56.70;;;20.82;53.62;97829.53;5075639;28;20559;-75
2022/08/04 02:41:28;;;;;;;4.20;3.80;;;21.40;56.80;;;20.75;53.40;97823.53;5068254;28;20461;-75
2022/08/04 02:43:58;;;;;;;4.07;3.77;;;21.40;56.40;;;20.58;53.93;97816.53;5063845;28;20459;-76
2022/08/04 02:46:28;;;;;;;4.40;4.10;;;21.30;56.60;;;20.57;54.10;97817.63;5063964;28;20469;-76
2022/08/04 02:48:57;;;;;;;4.03;3.73;;;21.20;56.80;;;20.72;53.90;97810.38;5066782;28;20464;-76
2022/08/04 02:51:28;;;;;;;3.83;3.50;;;21.30;56.80;;;20.57;53.85;97803.91;5115408;28;20477;-74
2022/08/04 02:53:58;;;;;;;4.70;4.30;;;21.20;56.80;;;20.52;54.16;97813.00;5087829;28;20563;-73
2022/08/04 02:56:29;;;;;;;3.80;3.23;;;21.10;56.80;;;20.42;54.63;97812.25;5084289;28;20447;-75
2022/08/04 02:59:00;;;;;;;6.43;3.73;;;21.00;57.00;;;20.46;54.52;97805.88;5074480;28;20963;-75
2022/08/04 03:01:30;;;;;;;4.40;4.10;;;21.10;57.30;;;20.38;54.43;97812.81;5084842;28;20465;-76
2022/08/04 03:04:14;;;;;;;4.13;3.83;;;21.10;57.10;;;20.39;54.84;97816.38;5057748;28;20454;-73
2022/08/04 03:07:24;;;;;;;4.37;3.87;;;20.90;57.30;;;20.18;55.42;97816.53;5068325;28;20467;-75
2022/08/04 03:10:24;;;;;;;4.60;4.20;;;20.80;57.30;;;20.29;55.30;97817.28;5064547;28;20477;-76
2022/08/04 03:13:32;;;;;;;5.23;3.93;;;20.80;57.70;;;20.39;54.79;97822.66;5068796;28;20480;-77
2022/08/04 03:16:15;;;;;;;7.00;4.40;;;20.80;57.80;;;20.33;54.76;97796.38;5069665;28;20472;-75
2022/08/04 03:19:42;;;;;;;4.37;4.00;;;21.00;57.80;;;20.27;55.42;97819.47;5073221;28;20479;-75
2022/08/04 03:22:29;;;;;;;4.40;4.00;;;20.90;57.60;;;20.20;55.61;97813.47;5060446;28;20462;-75
2022/08/04 03:25:38;;;;;;;4.10;3.80;;;20.80;57.80;;;20.31;55.86;97826.03;5073514;28;20567;-76
2022/08/04 03:29:02;;;;;;;4.73;4.27;;;20.80;58.10;;;19.98;55.68;97762.63;5035341;28;20511;-76
2022/08/04 03:32:09;;;;;;;4.30;3.90;;;20.90;58.40;;;20.33;55.30;97815.59;5069122;28;22156;-76
2022/08/04 03:35:04;;;;;;;8.20;4.80;;;20.90;58.10;;;20.29;55.78;97810.94;5066274;28;20466;-76
2022/08/04 03:37:58;;;;;;;4.53;4.23;;;20.90;58.30;;;20.37;55.26;97824.06;5061395;28;20875;-75
2022/08/04 03:40:40;;;;;;;6.30;4.30;;;21.00;58.30;;;20.28;55.91;97821.13;5061838;28;20941;-75
2022/08/04 03:43:58;;;;;;;4.53;4.13;;;20.90;58.30;;;20.37;55.48;97810.38;5096286;27;20459;-76
2022/08/04 03:47:05;;;;;;;9.13;3.90;;;21.00;58.40;;;20.43;55.38;97819.38;5083185;28;20813;-76
2022/08/04 03:50:12;;;;;;;5.80;4.53;;;21.00;58.20;;;20.28;55.69;97815.63;5070046;28;20468;-74
2022/08/04 03:53:39;;;;;;;9.30;4.30;;;21.00;58.20;;;20.40;55.20;97807.03;5097969;27;20464;-76
2022/08/04 03:56:37;;;;;;;7.63;4.40;;;21.00;58.30;;;20.29;55.60;97816.44;5040279;28;20483;-76
2022/08/04 03:59:41;;;;;;;4.50;4.13;;;20.90;58.30;;;20.36;55.29;97811.47;5037445;28;20900;-77
2022/08/04 04:02:38;;;;;;;4.23;3.93;;;21.00;58.30;;;20.47;55.02;97814.97;5064592;28;20461;-75
2022/08/04 04:05:36;;;;;;;4.77;4.00;;;21.00;58.30;;;20.40;55.23;97818.03;5058315;28;20473;-76
2022/08/04 04:08:43;;;;;;;4.53;4.13;;;21.10;58.30;;;20.36;55.26;97820.50;5056800;28;20463;-77
2022/08/04 04:11:40;;;;;;;4.20;3.83;;;21.00;58.20;;;20.25;55.55;97827.19;5053487;28;20539;-75
2022/08/04 04:14:19;;;;;;;5.33;4.10;;;20.90;58.20;;;20.39;55.26;97819.94;5061806;28;20481;-75
2022/08/04 04:17:09;;;;;;;4.60;4.20;;;21.00;58.80;;;20.48;54.87;97819.34;5069375;28;20558;-75
2022/08/04 04:20:08;;;;;;;4.40;4.00;;;21.10;58.10;;;20.48;54.88;97811.94;5068216;28;20464;-76
2022/08/04 04:23:14;;;;;;;4.27;3.90;;;21.10;58.30;;;20.36;55.10;97817.75;5073705;28;20523;-77
2022/08/04 04:26:04;;;;;;;5.23;4.20;;;21.00;58.30;;;20.19;55.39;97778.94;5053450;28;20444;-74
2022/08/04 04:29:03;;;;;;;6.70;4.50;;;21.10;58.50;;;20.43;55.20;97806.47;5068943;28;20455;-76
2022/08/04 04:31:54;;;;;;;4.97;4.47;;;21.10;58.20;;;20.47;54.77;97815.78;5093346;28;20457;-76
2022/08/04 04:34:40;;;;;;;6.30;4.13;;;21.10;58.20;;;20.59;54.70;97811.84;5076515;28;20506;-77
2022/08/04 04:37:33;;;;;;;4.87;4.10;;;21.20;58.10;;;21.71;51.40;97822.06;5069508;28;20472;-75
2022/08/04 04:40:24;;;;;;;3.47;3.20;;;22.20;57.50;;;23.12;48.46;97813.38;5070504;28;20541;-76
2022/08/04 04:43:16;;;;;;;4.53;3.63;;;23.60;56.30;;;24.38;44.99;97818.88;5067477;28;20508;-75
2022/08/04 04:45:54;;;;;;;8.93;4.23;;;24.90;54.80;;;25.38;42.55;97818.91;5101194;27;20962;-76
2022/08/04 04:48:36;;;;;;;4.20;3.50;;;26.00;53.60;;;25.86;41.48;97825.63;5068993;28;20459;-75
2022/08/04 04:51:14;;;;;;;5.10;4.60;;;26.70;51.90;;;26.21;40.44;97827.69;5061114;28;20468;-78
2022/08/04 04:53:51;;;;;;;5.70;3.50;;;27.10;51.40;;;26.53;39.77;97825.56;5071425;28;20512;-76
2022/08/04 04:56:28;;;;;;;4.17;3.77;;;27.30;51.00;;;26.95;39.03;97827.03;5067359;28;21011;-73
2022/08/04 04:58:58;;;;;;;6.87;4.00;;;27.70;50.40;;;26.79;39.47;97827.53;5064475;28;20475;-76
2022/08/04 05:02:14;;;;;;;7.60;3.80;;;27.70;50.40;;;26.69;38.55;97761.38;5064794;28;20453;-77
2022/08/04 05:05:22;;;;;;;4.40;4.00;;;27.80;50.00;;;27.70;37.03;97815.56;5032556;28;20907;-76
2022/08/04 05:08:22;;;;;;;4.30;3.90;;;28.50;49.40;;;28.11;36.52;97829.03;5057397;28;20455;-76
2022/08/04 05:11:09;;;;;;;6.93;3.87;;;28.90;48.80;;;28.21;36.23;97820.34;5065430;28;20479;-76
2022/08/04 05:13:45;;;;;;;10.33;4.53;;;29.30;48.00;;;28.54;38.15;97827.13;5069818;28;20453;-83
2022/08/04 05:16:19;;;;;;;8.87;4.47;;;29.40;50.30;;;28.80;36.01;97828.84;5065764;28;20468;-84
2022/08/04 05:19:11;;;;;;;11.93;4.23;;;30.00;49.00;;;28.16;37.03;97812.19;5071868;28;20463;-80
2022/08/04 05:21:47;;;;;;;6.07;4.00;;;29.60;48.50;;;29.19;35.34;97831.44;5070810;28;20452;-81
2022/08/04 05:24:19;;;;;;;4.70;4.30;;;30.20;48.00;;;28.58;35.57;97841.13;5066222;28;20514;-71
2022/08/04 05:26:52;;;;;;;5.60;3.57;;;30.00;47.20;;;28.44;35.51;97835.88;5061992;28;20457;-71
2022/08/04 05:29:30;;;;;;;5.27;3.77;;;29.60;47.00;;;27.98;36.47;97834.53;5061372;28;20464;-73
2022/08/04 05:32:02;;;;;;;47.17;13.70;;;29.30;47.50;;;27.29;37.97;97833.63;5075487;28;21109;-71
2022/08/04 05:34:36;;;;;;;13.87;5.50;;;28.70;48.00;;;27.41;37.80;97827.41;5064650;28;20456;-72
2022/08/04 05:37:10;;;;;;;6.70;4.70;;;28.50;48.30;;;27.33;37.98;97837.38;5060148;28;20479;-72
2022/08/04 05:39:46;;;;;;;7.07;4.90;;;28.50;48.30;;;27.55;37.70;97835.56;5059783;28;20534;-71
2022/08/04 05:42:15;;;;;;;4.53;4.13;;;28.50;48.50;;;26.84;39.42;97843.97;5075172;28;20475;-72
2022/08/04 05:44:44;;;;;;;7.87;4.30;;;28.40;48.60;;;26.16;39.41;97795.41;5062150;28;20944;-73
2022/08/04 05:47:12;;;;;;;6.53;3.97;;;28.30;48.30;;;27.04;38.70;97838.13;5065728;28;20959;-73
2022/08/04 05:49:41;;;;;;;4.87;4.10;;;28.30;48.40;;;26.61;39.54;97831.44;5084916;28;20526;-75
2022/08/04 05:52:10;;;;;;;8.37;4.07;;;28.30;48.50;;;26.66;39.24;97834.06;5092676;28;20839;-71
2022/08/04 05:54:38;;;;;;;6.67;4.87;;;28.30;48.30;;;27.18;38.63;97829.59;5058450;28;20988;-72
2022/08/04 05:57:07;;;;;;;6.90;3.87;;;28.50;48.40;;;27.27;38.01;97836.72;5072765;28;20465;-70
2022/08/04 05:59:38;;;;;;;4.60;4.10;;;28.60;48.00;;;27.62;37.03;97830.28;5064317;28;20460;-71
2022/08/04 06:02:09;;;;;;;6.00;3.60;;;28.60;47.90;;;27.58;37.05;97834.88;5059383;28;20456;-70
2022/08/04 06:04:40;;;;;;;4.57;3.93;;;28.70;47.70;;;27.81;36.89;97826.28;5061226;28;20461;-72
2022/08/04 06:07:10;;;;;;;6.80;4.40;;;28.90;47.60;;;28.31;35.88;97835.00;5068870;28;20460;-71
2022/08/04 06:09:37;;;;;;;4.07;3.33;;;29.30;47.40;;;28.50;35.07;97832.53;5061054;28;20956;-73
2022/08/04 06:12:09;;;;;;;4.90;4.03;;;30.10;46.60;;;28.12;35.78;97834.25;5060008;28;20453;-70
2022/08/04 06:14:40;;;;;;;5.40;4.10;;;29.90;46.30;;;26.73;37.88;97843.50;5063720;28;20476;-73
2022/08/04 06:17:13;;;;;;;6.30;4.70;;;28.70;47.00;;;25.43;40.76;97840.06;5066635;28;20564;-73
2022/08/04 06:19:44;;;;;;;4.87;4.03;;;27.00;48.20;;;24.89;42.37;97838.97;5059325;28;20464;-71
2022/08/04 06:22:12;;;;;;;4.47;4.00;;;26.10;49.50;;;24.70;42.98;97835.56;5062944;28;20453;-72
2022/08/04 06:24:41;;;;;;;5.20;3.87;;;25.60;50.40;;;24.75;42.83;97833.47;5067892;28;20464;-73
2022/08/04 06:27:09;;;;;;;6.23;4.23;;;25.40;50.70;;;24.74;43.00;97837.38;5064171;28;20452;-72
2022/08/04 06:29:40;;;;;;;4.10;3.70;;;25.40;50.90;;;24.70;43.22;97838.31;5058660;28;20457;-72
2022/08/04 06:32:26;;;;;;;3.60;3.30;;;25.40;50.80;;;24.61;42.99;97844.56;5064264;28;20509;-71
2022/08/04 06:34:56;;;;;;;5.00;4.50;;;25.30;51.00;;;24.75;42.95;97840.94;5062400;28;20453;-71
2022/08/04 06:37:25;;;;;;;6.17;4.23;;;25.40;51.00;;;24.88;43.00;97850.34;5064362;28;20591;-71
2022/08/04 06:39:54;;;;;;;4.70;3.60;;;25.40;51.00;;;24.98;42.50;97838.22;5066521;28;20459;-73
2022/08/04 06:42:27;;;;;;;6.67;4.10;;;25.60;50.70;;;24.92;42.69;97842.22;5063327;28;20460;-73
2022/08/04 06:45:08;;;;;;;5.57;3.70;;;25.60;50.70;;;25.10;41.61;97835.69;5074849;28;20472;-75
2022/08/04 06:47:38;;;;;;;5.80;4.17;;;25.70;50.50;;;25.15;41.70;97846.59;5067760;28;20458;-77
2022/08/04 06:50:08;;;;;;;7.77;3.60;;;25.70;50.40;;;25.32;41.42;97845.91;5069683;28;20483;-77
2022/08/04 06:52:36;;;;;;;4.27;3.87;;;25.90;50.40;;;25.28;40.88;97844.88;5069463;28;21286;-71
2022/08/04 06:55:07;;;;;;;6.27;4.90;;;25.90;49.80;;;25.32;40.59;97840.38;5060665;28;21406;-72
2022/08/04 06:57:35;;;;;;;5.10;3.63;;;25.90;49.60;;;25.48;40.12;97848.28;5078373;28;20496;-74
2022/08/04 07:00:09;;;;;;;3.80;3.50;;;26.00;49.90;;;25.53;39.84;97844.53;5071566;28;20464;-73
2022/08/04 07:02:43;;;;;;;3.03;2.83;;;26.10;49.30;;;25.59;39.86;97848.81;5070578;28;20893;-78
2022/08/04 07:05:11;;;;;;;3.47;3.17;;;26.20;49.10;;;25.65;39.65;97846.72;5063051;28;20448;-71
2022/08/04 07:07:40;;;;;;;3.60;3.30;;;26.20;49.20;;;25.94;39.01;97851.69;5064756;28;20464;-70
2022/08/04 07:10:09;;;;;;;13.13;4.50;;;26.40;48.90;;;26.02;38.78;97844.53;5066341;28;21117;-72
2022/08/04 07:12:38;;;;;;;4.23;3.83;;;26.50;48.60;;;26.22;37.92;97847.84;5068129;28;20440;-71
2022/08/04 07:15:07;;;;;;;3.60;3.27;;;26.70;48.50;;;26.43;37.82;97850.81;5068740;28;20964;-71
2022/08/04 07:17:36;;;;;;;4.37;3.20;;;26.80;48.40;;;26.41;37.28;97842.84;5068462;28;20479;-72
2022/08/04 07:20:06;;;;;;;7.73;3.40;;;27.00;48.00;;;26.62;37.70;97839.41;5063047;28;20609;-79
2022/08/04 07:22:34;;;;;;;3.67;3.47;;;27.10;48.10;;;26.69;37.35;97833.41;5093753;28;20514;-70
2022/08/04 07:25:11;;;;;;;3.80;3.00;;;27.20;48.00;;;26.80;36.65;97823.63;5062016;28;20457;-71
2022/08/04 07:27:43;;;;;;;6.97;3.60;;;27.30;47.60;;;26.79;36.71;97833.06;5068531;28;20459;-71
2022/08/04 07:30:15;;;;;;;3.37;3.17;;;27.30;47.70;;;26.76;36.73;97839.25;5068933;28;20478;-70
2022/08/04 07:32:44;;;;;;;3.70;3.17;;;27.30;47.50;;;26.82;36.82;97793.63;5068976;28;20461;-72
2022/08/04 07:35:14;;;;;;;3.20;2.90;;;27.50;47.50;;;27.27;35.80;97836.72;5068081;28;22580;-72
2022/08/04 07:37:41;;;;;;;3.57;3.13;;;27.70;47.60;;;27.48;35.81;97829.66;5067989;28;20472;-70
2022/08/04 07:40:09;;;;;;;3.43;3.23;;;27.90;47.20;;;27.56;35.28;97824.09;5069904;28;20455;-72
2022/08/04 07:42:46;;;;;;;4.90;2.90;;;28.00;46.90;;;27.42;34.88;97823.47;5064361;28;20453;-81
2022/08/04 07:45:17;;;;;;;4.93;2.80;;;28.00;46.50;;;27.51;34.94;97818.72;5065715;28;21036;-80
2022/08/04 07:47:45;;;;;;;5.03;3.20;;;28.00;46.50;;;27.54;34.98;97817.28;5070100;28;20490;-82
2022/08/04 07:50:15;;;;;;;4.83;3.43;;;28.00;46.60;;;27.68;34.77;97823.41;5063495;28;21047;-82
2022/08/04 07:52:44;;;;;;;2.80;2.60;;;28.10;46.70;;;27.88;34.65;97826.56;5065796;28;20449;-78
2022/08/04 07:55:13;;;;;;;3.67;3.37;;;28.30;46.60;;;28.22;33.79;97824.75;5066438;28;20462;-71
2022/08/04 07:57:40;;;;;;;4.67;3.33;;;28.50;46.40;;;28.08;33.47;97813.06;5064469;28;20480;-73
2022/08/04 08:00:11;;;;;;;7.87;2.87;;;28.60;45.90;;;28.17;33.67;97808.28;5068216;28;20469;-77
2022/08/04 08:02:39;;;;;;;4.70;2.73;;;28.70;46.10;;;28.39;33.21;97823.00;5096756;28;20543;-80
2022/08/04 08:05:10;;;;;;;5.97;2.80;;;28.80;45.80;;;28.46;33.20;97822.44;5064245;28;20467;-79
2022/08/04 08:07:39;;;;;;;3.60;2.70;;;28.90;45.70;;;28.50;32.65;97824.22;5093042;27;20838;-70
2022/08/04 08:10:15;;;;;;;4.07;3.20;;;28.90;45.30;;;28.69;32.49;97822.91;5072888;28;20450;-70
2022/08/04 08:12:44;;;;;;;5.60;3.07;;;29.10;45.30;;;28.93;31.81;97818.63;5081517;28;20464;-70
2022/08/04 08:15:12;;;;;;;4.90;2.93;;;29.30;45.00;;;28.83;32.15;97811.53;5064849;28;20517;-74
2022/08/04 08:17:41;;;;;;;2.87;2.67;;;29.30;44.80;;;28.79;31.47;97811.38;5068822;28;20475;-72
2022/08/04 08:20:10;;;;;;;2.60;2.40;;;29.30;44.40;;;29.03;31.18;97812.63;5067034;28;20551;-70
2022/08/04 08:22:46;;;;;;;9.03;8.53;;;29.40;44.40;;;29.07;31.08;97810.81;5065144;28;21006;-67
2022/08/04 08:25:13;;;;;;;4.20;2.80;;;29.50;44.40;;;29.16;30.72;97807.09;5068917;28;20455;-70
2022/08/04 08:27:41;;;;;;;3.60;2.50;;;29.60;44.10;;;28.95;30.64;97778.19;5063559;28;20464;-70
2022/08/04 08:30:11;;;;;;;3.30;3.10;;;29.60;44.00;;;29.33;30.63;97815.25;5064429;28;20474;-70
2022/08/04 08:32:39;;;;;;;2.97;2.60;;;29.70;44.10;;;29.36;30.52;97817.34;5061389;28;20848;-70
2022/08/04 08:35:10;;;;;;;3.00;2.57;;;29.80;43.80;;;29.58;30.20;97806.97;5069275;28;20456;-70
2022/08/04 08:37:49;;;;;;;2.90;2.60;;;29.90;43.80;;;29.48;30.11;97799.06;5063131;28;20476;-69
2022/08/04 08:40:31;;;;;;;2.93;2.73;;;30.00;43.60;;;29.51;30.65;97810.31;5083351;28;20998;-70
2022/08/04 08:43:35;;;;;;;4.00;2.70;;;29.90;43.80;;;29.74;29.85;97795.94;5061399;28;20479;-70
2022/08/04 08:46:43;;;;;;;4.40;2.93;;;30.00;43.50;;;29.96;29.35;97794.66;5062396;28;20482;-70
2022/08/04 08:50:26;;;;;;;3.03;2.30;;;30.30;43.50;;;30.15;28.82;97792.44;5064051;28;20456;-70
2022/08/04 08:53:17;;;;;;;2.67;2.50;;;30.50;43.20;;;30.26;28.35;97810.28;4963331;28;20978;-68
2022/08/04 08:56:04;;;;;;;2.60;2.40;;;30.60;42.90;;;30.28;27.68;97801.59;4986971;28;20993;-70
2022/08/04 08:58:59;;;;;;;2.23;2.03;;;30.60;42.30;;;30.44;27.66;97802.47;5055387;28;20484;-70
2022/08/04 09:01:57;;;;;;;2.20;2.00;;;30.70;42.30;;;30.44;27.95;97810.00;5080979;28;20453;-70
2022/08/04 09:04:44;;;;;;;2.80;2.60;;;30.90;42.20;;;30.66;28.02;97806.72;5067457;28;20445;-68
2022/08/04 09:07:38;;;;;;;4.27;2.67;;;31.00;42.40;;;30.41;28.09;97799.56;5089183;27;21096;-65
2022/08/04 09:10:19;;;;;;;2.60;2.40;;;30.80;42.40;;;30.60;28.66;97801.72;5064870;28;20487;-66
2022/08/04 09:12:54;;;;;;;2.47;2.27;;;30.90;42.60;;;30.75;27.56;97802.94;5067446;28;20468;-67
2022/08/04 09:15:32;;;;;;;3.27;2.70;;;31.00;42.30;;;30.68;27.93;97800.78;5066641;28;20496;-67
2022/08/04 09:18:06;;;;;;;2.70;2.50;;;31.10;42.30;;;30.93;28.13;97803.44;5046529;28;20491;-67
2022/08/04 09:20:40;;;;;;;2.50;2.30;;;31.20;42.70;;;31.03;27.95;97797.38;5048751;28;20442;-66
2022/08/04 09:23:18;;;;;;;2.70;2.50;;;31.40;42.60;;;31.16;27.84;97794.47;5060945;28;20453;-66
2022/08/04 09:25:59;;;;;;;7.20;3.30;;;31.50;42.40;;;31.16;27.86;97788.91;5063352;28;20464;-66
2022/08/04 09:28:30;;;;;;;4.60;2.80;;;31.60;42.70;;;31.25;28.12;97788.78;5077483;28;20970;-67
2022/08/04 09:31:07;;;;;;;2.47;2.27;;;31.60;42.50;;;31.41;27.48;97784.00;5068569;28;20759;-66
2022/08/04 09:33:48;;;;;;;2.60;2.40;;;31.70;42.40;;;31.44;27.28;97788.88;5066135;28;21001;-65
2022/08/04 09:36:28;;;;;;;2.20;2.10;;;31.80;42.20;;;31.34;27.30;97783.81;5067651;28;20456;-66
2022/08/04 09:39:09;;;;;;;2.20;2.00;;;31.80;42.00;;;31.20;27.88;97787.03;5066644;28;20488;-66
2022/08/04 09:41:49;;;;;;;3.30;2.67;;;31.60;42.00;;;31.36;27.34;97790.66;5067110;28;20943;-66
2022/08/04 09:44:28;;;;;;;3.07;2.50;;;31.70;42.10;;;31.17;27.53;97784.97;5060289;28;20446;-66
2022/08/04 09:47:06;;;;;;;3.87;3.10;;;31.60;42.10;;;31.26;27.27;97757.72;5067215;28;20479;-67
2022/08/04 09:49:41;;;;;;;2.60;2.40;;;31.70;42.20;;;31.63;26.25;97790.94;5067158;28;20451;-66
2022/08/04 09:52:23;;;;;;;2.57;2.37;;;31.90;41.60;;;31.68;25.95;97775.84;5066707;28;20465;-66
2022/08/04 09:55:03;;;;;;;3.10;2.50;;;32.10;41.20;;;31.89;26.06;97792.34;5065358;28;20865;-66
2022/08/04 09:57:48;;;;;;;2.67;2.47;;;32.20;41.20;;;32.02;25.91;97790.25;5064001;28;20538;-65
2022/08/04 10:00:19;;;;;;;2.33;2.20;;;32.30;41.20;;;32.15;26.16;97781.72;5060619;28;20518;-66
2022/08/04 10:02:52;;;;;;;2.40;2.20;;;32.40;41.50;;;32.16;26.31;97788.97;5066686;28;20459;-66
2022/08/04 10:05:23;;;;;;;3.50;2.60;;;32.50;41.40;;;32.19;26.01;97771.47;5066301;28;20441;-67
2022/08/04 10:08:22;;;;;;;2.67;2.47;;;32.50;41.40;;;31.98;26.58;97777.38;5065481;28;20449;-66
2022/08/04 10:11:03;;;;;;;2.53;2.23;;;32.30;41.60;;;32.01;26.55;97774.69;5064579;28;20448;-65
2022/08/04 10:13:52;;;;;;;3.83;2.13;;;32.40;41.60;;;32.10;26.33;97765.25;5066871;28;20460;-66
2022/08/04 10:16:36;;;;;;;2.17;2.07;;;32.40;41.40;;;32.24;25.91;97770.38;5065166;28;20453;-66
2022/08/04 10:19:17;;;;;;;2.53;2.33;;;32.50;41.30;;;32.29;25.83;97764.47;5071519;28;20533;-66
2022/08/04 10:22:08;;;;;;;2.70;2.50;;;32.60;41.10;;;32.31;25.64;97762.13;5073394;28;20482;-67
2022/08/04 10:24:53;;;;;;;2.70;2.50;;;32.60;41.00;;;32.42;25.63;97757.59;5073491;28;20456;-65
2022/08/04 10:27:29;;;;;;;3.53;2.53;;;32.80;41.10;;;32.41;25.71;97756.00;5066918;28;20533;-67
2022/08/04 10:30:10;;;;;;;2.70;2.37;;;32.70;41.00;;;32.66;25.33;97750.06;5073115;28;20545;-66
2022/08/04 10:32:50;;;;;;;2.57;2.30;;;32.90;40.90;;;32.55;25.48;97754.66;5068674;28;20450;-67
2022/08/04 10:35:21;;;;;;;2.67;2.50;;;32.80;40.90;;;32.55;25.73;97737.88;5054365;28;20481;-66
2022/08/04 10:38:02;;;;;;;2.83;2.67;;;32.90;40.90;;;32.68;25.26;97749.72;5064654;28;20483;-69
2022/08/04 10:40:36;;;;;;;2.30;2.20;;;32.90;40.80;;;32.58;25.28;97742.75;5071725;28;21020;-66
2022/08/04 10:43:12;;;;;;;2.80;2.60;;;33.00;40.80;;;32.64;25.27;97746.84;5063691;28;20473;-66
2022/08/04 10:45:47;;;;;;;2.50;2.30;;;33.00;40.70;;;32.68;25.47;97735.72;5073931;28;20522;-67
2022/08/04 10:48:41;;;;;;;2.57;2.37;;;33.00;41.00;;;32.63;24.71;97732.06;5073398;28;20456;-68
2022/08/04 10:51:20;;;;;;;3.13;2.70;;;33.00;40.30;;;32.79;24.70;97736.75;5085628;28;20457;-65
2022/08/04 10:53:56;;;;;;;3.40;3.00;;;33.00;40.40;;;32.49;24.95;97743.75;5070842;28;20509;-67
2022/08/04 10:56:32;;;;;;;2.60;2.40;;;33.00;40.20;;;32.46;24.70;97730.53;5072090;28;20456;-67
2022/08/04 10:59:08;;;;;;;5.50;2.47;;;32.80;40.30;;;32.64;25.09;97730.06;5072637;28;20474;-67
2022/08/04 11:01:41;;;;;;;2.70;2.50;;;32.90;40.40;;;32.79;24.60;97731.94;5074484;28;20444;-66
2022/08/04 11:04:26;;;;;;;2.70;2.50;;;33.10;40.40;;;32.91;24.87;97721.81;5071388;28;20453;-66
2022/08/04 11:06:54;;;;;;;2.97;2.77;;;33.20;40.60;;;33.13;24.48;97728.59;5071248;28;20828;-67
2022/08/04 11:09:21;;;;;;;2.87;2.63;;;33.30;40.30;;;32.99;24.21;97723.56;5071318;28;20488;-67
2022/08/04 11:11:55;;;;;;;2.80;2.60;;;33.20;40.00;;;33.21;23.70;97715.53;5068319;28;20889;-68